Time;durP1;ratioP1;P1;durP2;ratioP2;P2;SDS_P1;SDS_P2;PMS_P1;PMS_P2;Temp;Humidity;BMP_temperature;BMP_pressure;BME280_temperature;BME280_humidity;BME280_pressure;Samples;Min_cycle;Max_cycle;Signal;HPM_P1;HPM_P2
2022/11/09 00:00:36;;;;;;;2.50;2.30;;;15.10;81.50;;;;;;950795;150;27279;-78
2022/11/09 00:03:03;;;;;;;3.15;2.30;;;15.20;81.60;;;;;;951444;150;27340;-78
2022/11/09 00:05:29;;;;;;;2.40;2.17;;;15.20;81.60;;;;;;949144;146;27409;-79
2022/11/09 00:07:56;;;;;;;2.22;1.77;;;15.20;81.50;;;;;;951646;150;28756;-77
2022/11/09 00:10:23;;;;;;;2.30;2.05;;;15.20;81.40;;;;;;950625;149;27311;-78
2022/11/09 00:12:49;;;;;;;3.05;2.50;;;15.30;81.40;;;;;;955273;146;27311;-78
2022/11/09 00:15:16;;;;;;;2.42;2.20;;;15.30;81.40;;;;;;937712;149;27447;-78
2022/11/09 00:17:42;;;;;;;2.47;1.90;;;15.30;81.20;;;;;;939243;149;27446;-78
2022/11/09 00:20:09;;;;;;;2.92;2.30;;;15.30;81.20;;;;;;952536;145;27334;-79
2022/11/09 00:22:36;;;;;;;4.05;2.25;;;15.30;81.10;;;;;;956911;145;27350;-78
2022/11/09 00:25:02;;;;;;;2.25;2.05;;;15.30;81.20;;;;;;955588;145;27304;-78
2022/11/09 00:27:29;;;;;;;2.30;2.10;;;15.30;81.40;;;;;;949217;147;27396;-78
2022/11/09 00:29:56;;;;;;;2.55;2.20;;;15.30;81.50;;;;;;948582;147;27375;-78
2022/11/09 00:32:22;;;;;;;2.40;2.00;;;15.40;81.70;;;;;;947676;147;27342;-78
2022/11/09 00:34:49;;;;;;;3.08;2.58;;;15.40;81.80;;;;;;954015;145;27408;-77
2022/11/09 00:37:15;;;;;;;3.62;2.37;;;15.40;82.00;;;;;;951589;145;28811;-78
2022/11/09 00:39:42;;;;;;;2.60;2.40;;;15.40;82.80;;;;;;956001;145;27395;-78
2022/11/09 00:42:08;;;;;;;3.95;2.33;;;15.50;82.80;;;;;;956485;146;27274;-79
2022/11/09 00:44:35;;;;;;;2.92;2.30;;;15.50;83.40;;;;;;943929;148;27848;-79
2022/11/09 00:47:02;;;;;;;3.10;2.27;;;15.50;83.90;;;;;;954436;145;27463;-79
2022/11/09 00:49:28;;;;;;;2.30;2.10;;;15.50;84.80;;;;;;953243;145;27319;-78
2022/11/09 00:51:55;;;;;;;1.90;1.80;;;15.50;84.80;;;;;;948707;147;27322;-78
2022/11/09 00:54:21;;;;;;;2.50;1.80;;;15.50;85.10;;;;;;952423;147;27468;-79
2022/11/09 00:56:48;;;;;;;3.62;2.20;;;15.50;85.30;;;;;;952311;147;27312;-78
2022/11/09 00:59:15;;;;;;;3.67;2.33;;;15.40;85.70;;;;;;950356;147;27490;-79
2022/11/09 01:01:41;;;;;;;2.15;1.87;;;15.40;86.10;;;;;;953165;147;27368;-78
2022/11/09 01:04:08;;;;;;;4.33;2.10;;;15.40;86.50;;;;;;953484;147;27747;-79
2022/11/09 01:06:34;;;;;;;6.00;2.83;;;15.30;87.80;;;;;;954247;146;27295;-79
2022/11/09 01:09:01;;;;;;;2.15;1.90;;;15.30;87.70;;;;;;938449;148;27450;-78
2022/11/09 01:11:28;;;;;;;3.22;1.90;;;15.20;88.40;;;;;;935168;148;27814;-79
2022/11/09 01:13:54;;;;;;;2.95;1.90;;;15.20;89.00;;;;;;950695;148;27479;-79
2022/11/09 01:18:57;;;;;;;1.77;1.67;;;15.20;89.70;;;;;;972608;145;37228;-78
2022/11/09 01:21:23;;;;;;;1.80;1.70;;;15.10;90.90;;;;;;957290;148;27320;-80
2022/11/09 01:23:50;;;;;;;2.42;1.62;;;15.10;91.20;;;;;;957515;149;27382;-80
2022/11/09 01:26:16;;;;;;;2.22;1.92;;;15.10;91.50;;;;;;957196;147;27315;-79
2022/11/09 01:28:43;;;;;;;2.45;1.90;;;15.10;91.70;;;;;;956684;147;27700;-80
2022/11/09 01:31:10;;;;;;;4.90;2.05;;;15.10;91.90;;;;;;956612;147;27323;-81
2022/11/09 01:33:36;;;;;;;2.20;2.00;;;15.10;92.20;;;;;;957219;147;27284;-80
2022/11/09 01:36:03;;;;;;;2.20;1.90;;;15.10;92.60;;;;;;956867;145;27302;-80
2022/11/09 01:38:29;;;;;;;2.58;1.80;;;15.00;92.90;;;;;;956790;148;27428;-80
2022/11/09 01:40:56;;;;;;;2.75;1.87;;;15.00;93.30;;;;;;955118;147;27277;-79
2022/11/09 01:43:23;;;;;;;3.12;1.85;;;14.90;93.60;;;;;;955741;147;27322;-80
2022/11/09 01:46:10;;;;;;;2.90;2.20;;;14.90;94.00;;;;;;956884;149;28440;-80
2022/11/09 01:48:48;;;;;;;2.17;2.00;;;14.90;94.40;;;;;;955777;148;27345;-79
2022/11/09 01:51:18;;;;;;;2.47;1.82;;;14.80;94.70;;;;;;953891;149;27335;-79
2022/11/09 01:53:44;;;;;;;2.27;1.87;;;14.80;95.30;;;;;;956937;148;27341;-79
2022/11/09 01:56:11;;;;;;;3.05;2.05;;;14.70;95.80;;;;;;956025;145;27397;-79
2022/11/09 01:58:40;;;;;;;1.65;1.55;;;14.70;96.50;;;;;;956430;148;27387;-79
2022/11/09 02:01:10;;;;;;;2.72;2.47;;;14.70;97.10;;;;;;955827;148;27339;-79
2022/11/09 02:03:36;;;;;;;2.07;1.77;;;14.70;97.50;;;;;;955938;148;27363;-80
2022/11/09 02:06:03;;;;;;;4.22;1.72;;;14.70;98.20;;;;;;955660;148;27407;-79
2022/11/09 02:08:30;;;;;;;1.65;1.50;;;14.80;98.80;;;;;;951798;148;27470;-79
2022/11/09 02:11:11;;;;;;;2.43;1.80;;;14.80;99.20;;;;;;946459;149;27381;-79
2022/11/09 02:13:46;;;;;;;1.90;1.80;;;14.90;99.50;;;;;;946535;150;27369;-79
2022/11/09 02:16:13;;;;;;;1.62;1.52;;;14.90;99.70;;;;;;946760;151;27351;-79
2022/11/09 02:18:39;;;;;;;1.47;1.40;;;14.90;99.90;;;;;;942278;150;27977;-79
2022/11/09 02:21:06;;;;;;;1.75;1.65;;;15.00;99.90;;;;;;939928;151;27313;-79
2022/11/09 02:23:33;;;;;;;2.37;1.67;;;15.00;99.90;;;;;;940599;149;27300;-79
2022/11/09 02:26:08;;;;;;;3.47;1.93;;;15.00;99.90;;;;;;940534;151;27329;-79
2022/11/09 02:28:34;;;;;;;2.85;2.10;;;15.00;99.90;;;;;;939882;151;27335;-79
2022/11/09 02:31:01;;;;;;;2.02;1.90;;;15.10;99.90;;;;;;939993;151;27688;-79
2022/11/09 02:33:28;;;;;;;2.30;1.75;;;15.10;99.90;;;;;;939521;149;27393;-79
2022/11/09 02:35:54;;;;;;;3.77;1.82;;;15.10;99.90;;;;;;940569;150;27369;-79
2022/11/09 02:38:21;;;;;;;3.62;1.92;;;15.10;99.90;;;;;;940419;150;27331;-79
2022/11/09 02:40:47;;;;;;;2.40;1.80;;;15.10;99.90;;;;;;940727;150;27430;-79
2022/11/09 02:43:14;;;;;;;3.17;2.00;;;15.10;99.90;;;;;;939116;151;27433;-78
2022/11/09 02:45:41;;;;;;;4.00;2.00;;;15.10;99.90;;;;;;940306;150;27432;-79
2022/11/09 02:48:07;;;;;;;3.10;1.90;;;15.10;99.90;;;;;;940197;151;27305;-79
2022/11/09 02:50:35;;;;;;;2.05;1.87;;;15.10;99.90;;;;;;940101;152;27270;-78
2022/11/09 02:53:00;;;;;;;2.00;1.90;;;15.10;99.90;;;;;;939617;151;27313;-79
2022/11/09 02:55:27;;;;;;;2.20;1.95;;;15.10;99.90;;;;;;939932;150;27336;-78
2022/11/09 02:57:54;;;;;;;3.42;1.92;;;15.10;99.90;;;;;;939850;151;27351;-78
2022/11/09 03:00:20;;;;;;;1.80;1.70;;;15.00;99.90;;;;;;939558;151;27385;-78
2022/11/09 03:02:47;;;;;;;2.10;2.00;;;15.00;99.90;;;;;;939549;151;27378;-78
2022/11/09 03:05:13;;;;;;;2.05;1.70;;;15.00;99.90;;;;;;940321;152;28333;-79
2022/11/09 03:07:40;;;;;;;2.42;1.98;;;15.00;99.90;;;;;;940530;150;27348;-79
2022/11/09 03:10:06;;;;;;;2.50;1.95;;;15.00;99.90;;;;;;940312;152;27956;-78
2022/11/09 03:12:33;;;;;;;3.17;2.30;;;15.00;99.90;;;;;;939538;152;27406;-78
2022/11/09 03:15:00;;;;;;;2.02;1.82;;;15.00;99.90;;;;;;940250;150;27336;-78
2022/11/09 03:17:26;;;;;;;2.83;2.20;;;15.00;99.90;;;;;;939952;151;27272;-79
2022/11/09 03:19:53;;;;;;;2.47;2.27;;;15.00;99.90;;;;;;947152;150;27368;-78
2022/11/09 03:22:19;;;;;;;3.50;2.25;;;15.00;99.90;;;;;;946924;150;27444;-78
2022/11/09 03:24:46;;;;;;;2.13;2.03;;;15.00;99.90;;;;;;946456;151;27380;-78
2022/11/09 03:27:13;;;;;;;2.87;2.02;;;14.90;99.90;;;;;;946785;148;27883;-79
2022/11/09 03:29:39;;;;;;;2.52;1.95;;;14.90;99.90;;;;;;947079;150;27298;-79
2022/11/09 03:32:06;;;;;;;3.12;2.83;;;14.90;99.90;;;;;;947392;148;27475;-79
2022/11/09 03:34:32;;;;;;;2.50;2.30;;;14.90;99.90;;;;;;947921;149;27337;-78
2022/11/09 03:36:59;;;;;;;2.30;1.98;;;14.90;99.90;;;;;;948415;148;28272;-79
2022/11/09 03:39:26;;;;;;;2.33;2.10;;;14.90;99.90;;;;;;947910;151;27272;-78
2022/11/09 03:41:52;;;;;;;3.08;2.10;;;14.90;99.90;;;;;;947750;150;27408;-79
2022/11/09 03:44:19;;;;;;;2.12;1.82;;;14.80;99.90;;;;;;948274;148;27351;-78
2022/11/09 03:46:45;;;;;;;2.00;1.90;;;14.80;99.90;;;;;;948152;148;27330;-79
2022/11/09 03:49:12;;;;;;;2.60;1.60;;;14.80;99.90;;;;;;948119;150;27338;-78
2022/11/09 03:51:38;;;;;;;2.27;1.90;;;14.80;99.90;;;;;;947867;150;27396;-79
2022/11/09 03:54:05;;;;;;;2.13;1.83;;;14.80;99.90;;;;;;948456;151;27400;-79
2022/11/09 03:56:32;;;;;;;2.00;1.80;;;14.80;99.90;;;;;;947226;148;27363;-77
2022/11/09 03:58:58;;;;;;;2.17;1.90;;;14.80;99.90;;;;;;948628;150;27932;-80
2022/11/09 04:01:25;;;;;;;2.05;1.80;;;14.80;99.90;;;;;;947851;148;27330;-81
2022/11/09 04:03:51;;;;;;;1.82;1.72;;;14.80;99.90;;;;;;948257;150;27319;-81
2022/11/09 04:06:18;;;;;;;1.80;1.70;;;14.80;99.90;;;;;;947777;151;27757;-81
2022/11/09 04:08:45;;;;;;;3.00;1.98;;;14.80;99.90;;;;;;948225;148;27448;-80
2022/11/09 04:11:11;;;;;;;1.92;1.80;;;14.80;99.90;;;;;;948047;151;27384;-79
2022/11/09 04:13:38;;;;;;;1.50;1.40;;;14.90;99.90;;;;;;947900;151;27338;-81
2022/11/09 04:16:04;;;;;;;1.52;1.42;;;14.90;99.90;;;;;;947610;148;27308;-80
2022/11/09 04:18:31;;;;;;;1.67;1.55;;;14.90;99.90;;;;;;948044;148;27438;-80
2022/11/09 04:20:58;;;;;;;2.12;2.00;;;14.90;99.90;;;;;;952658;148;27295;-81
2022/11/09 04:23:24;;;;;;;1.90;1.77;;;14.90;99.90;;;;;;952926;150;27279;-80
2022/11/09 04:25:51;;;;;;;2.42;1.90;;;14.90;99.90;;;;;;953241;150;27427;-79
2022/11/09 04:28:17;;;;;;;1.57;1.47;;;14.90;99.90;;;;;;952646;150;27341;-80
2022/11/09 04:30:44;;;;;;;1.92;1.60;;;14.90;99.90;;;;;;952178;150;27341;-81
2022/11/09 04:33:10;;;;;;;1.90;1.60;;;14.90;99.90;;;;;;953118;148;27356;-80
2022/11/09 04:35:37;;;;;;;1.60;1.50;;;14.90;99.90;;;;;;953679;148;27314;-80
2022/11/09 04:38:04;;;;;;;2.30;1.70;;;14.90;99.90;;;;;;952910;150;27311;-79
2022/11/09 04:40:30;;;;;;;2.15;1.80;;;14.90;99.90;;;;;;952002;149;27325;-80
2022/11/09 04:43:00;;;;;;;2.77;1.62;;;14.90;99.90;;;;;;952396;150;27278;-79
2022/11/09 04:45:26;;;;;;;2.95;1.70;;;15.00;99.90;;;;;;952571;150;27431;-80
2022/11/09 04:48:02;;;;;;;1.87;1.70;;;15.00;99.90;;;;;;953643;148;27259;-80
2022/11/09 04:50:28;;;;;;;1.67;1.57;;;15.00;99.90;;;;;;952315;150;27512;-80
2022/11/09 04:52:55;;;;;;;2.92;1.87;;;15.00;99.90;;;;;;952545;148;27408;-80
2022/11/09 04:55:21;;;;;;;2.00;1.80;;;15.00;99.90;;;;;;952691;147;27294;-80
2022/11/09 04:57:48;;;;;;;3.12;1.85;;;15.00;99.90;;;;;;951202;150;27387;-80
2022/11/09 05:00:15;;;;;;;2.87;1.80;;;15.00;99.90;;;;;;952993;148;27303;-80
2022/11/09 05:02:41;;;;;;;2.10;1.80;;;15.00;99.90;;;;;;952898;150;27337;-79
2022/11/09 05:05:08;;;;;;;2.20;1.50;;;15.00;99.90;;;;;;953256;150;27322;-80
2022/11/09 05:07:34;;;;;;;2.10;1.90;;;15.00;99.90;;;;;;952566;148;27380;-80
2022/11/09 05:10:01;;;;;;;2.33;1.72;;;15.00;99.90;;;;;;951831;148;27277;-80
2022/11/09 05:12:28;;;;;;;2.60;1.80;;;15.00;99.90;;;;;;953211;147;27450;-80
2022/11/09 05:14:54;;;;;;;1.67;1.50;;;15.00;99.90;;;;;;953067;148;27310;-80
2022/11/09 05:17:21;;;;;;;4.17;1.70;;;15.00;99.90;;;;;;952708;148;27648;-80
2022/11/09 05:19:47;;;;;;;1.73;1.63;;;15.00;99.90;;;;;;949877;148;28215;-80
2022/11/09 05:24:59;;;;;;;1.55;1.45;;;15.00;99.90;;;;;;940256;152;27401;-80
2022/11/09 05:27:25;;;;;;;1.93;1.73;;;15.00;99.90;;;;;;939565;151;28050;-80
2022/11/09 05:29:52;;;;;;;1.62;1.50;;;15.00;99.90;;;;;;940069;149;27352;-79
2022/11/09 05:32:18;;;;;;;2.27;1.55;;;15.00;99.90;;;;;;940041;149;27332;-80
2022/11/09 05:34:45;;;;;;;1.90;1.70;;;15.00;99.90;;;;;;939910;151;27405;-80
2022/11/09 05:37:12;;;;;;;2.02;1.92;;;15.00;99.90;;;;;;940470;151;27309;-80
2022/11/09 05:39:38;;;;;;;2.00;1.50;;;15.00;99.90;;;;;;939701;151;27313;-80
2022/11/09 05:42:05;;;;;;;1.90;1.70;;;15.00;99.90;;;;;;940087;152;27388;-79
2022/11/09 05:44:31;;;;;;;1.95;1.67;;;15.00;99.90;;;;;;939728;150;27331;-80
2022/11/09 05:46:58;;;;;;;1.87;1.77;;;15.00;99.90;;;;;;940125;151;27289;-80
2022/11/09 05:49:24;;;;;;;3.45;2.20;;;15.00;99.90;;;;;;939773;151;27406;-80
2022/11/09 05:51:51;;;;;;;2.30;1.90;;;15.00;99.90;;;;;;940059;151;27939;-80
2022/11/09 05:54:18;;;;;;;2.98;2.02;;;15.00;99.90;;;;;;940343;149;27441;-80
2022/11/09 05:56:44;;;;;;;2.08;1.42;;;15.00;99.90;;;;;;939847;152;27339;-80
2022/11/09 05:59:11;;;;;;;1.40;1.30;;;14.90;99.90;;;;;;939648;151;27340;-80
2022/11/09 06:01:37;;;;;;;3.52;1.30;;;15.00;99.90;;;;;;939832;152;27327;-80
2022/11/09 06:04:04;;;;;;;1.17;1.13;;;14.90;99.90;;;;;;940445;150;27289;-80
2022/11/09 06:06:31;;;;;;;2.00;1.53;;;14.90;99.90;;;;;;939619;149;27405;-78
2022/11/09 06:08:57;;;;;;;1.37;1.20;;;14.90;99.90;;;;;;940148;150;27368;-79
2022/11/09 06:11:24;;;;;;;1.27;1.22;;;14.90;99.90;;;;;;939792;151;27344;-79
2022/11/09 06:13:50;;;;;;;2.20;1.80;;;14.90;99.90;;;;;;940791;151;27275;-79
2022/11/09 06:16:17;;;;;;;2.20;2.00;;;14.90;99.90;;;;;;940352;149;27284;-79
2022/11/09 06:18:43;;;;;;;1.60;1.50;;;14.90;99.90;;;;;;940133;152;27277;-79
2022/11/09 06:21:10;;;;;;;1.50;1.40;;;14.90;99.90;;;;;;940239;151;27449;-79
2022/11/09 06:23:37;;;;;;;1.98;1.87;;;14.90;99.90;;;;;;940270;152;27359;-80
2022/11/09 06:26:06;;;;;;;1.50;1.40;;;14.90;99.90;;;;;;940725;149;27308;-79
2022/11/09 06:28:33;;;;;;;1.50;1.40;;;14.90;99.90;;;;;;940653;149;27363;-79
2022/11/09 06:30:59;;;;;;;1.45;1.35;;;14.90;99.90;;;;;;939522;149;27277;-79
2022/11/09 06:33:26;;;;;;;1.70;1.22;;;14.90;99.90;;;;;;940207;149;27348;-79
2022/11/09 06:35:52;;;;;;;3.00;1.90;;;14.90;99.90;;;;;;939738;151;27424;-79
2022/11/09 06:38:19;;;;;;;2.77;1.90;;;14.90;99.90;;;;;;939332;151;27321;-79
2022/11/09 06:40:45;;;;;;;2.50;1.90;;;14.90;99.90;;;;;;939329;152;27377;-79
2022/11/09 06:43:12;;;;;;;3.22;2.17;;;14.90;99.90;;;;;;940028;151;27364;-79
2022/11/09 06:45:39;;;;;;;1.98;1.80;;;14.90;99.90;;;;;;939859;151;27380;-79
2022/11/09 06:48:05;;;;;;;1.77;1.67;;;15.00;99.90;;;;;;939668;152;27324;-79
2022/11/09 06:50:32;;;;;;;1.85;1.72;;;15.00;99.90;;;;;;939861;151;27956;-79
2022/11/09 06:52:58;;;;;;;3.17;2.08;;;15.00;99.90;;;;;;940150;152;27386;-79
2022/11/09 06:55:28;;;;;;;1.92;1.82;;;15.00;99.90;;;;;;939588;151;27450;-80
2022/11/09 06:57:54;;;;;;;2.67;2.00;;;15.00;99.90;;;;;;940619;151;27437;-79
2022/11/09 07:00:21;;;;;;;2.25;2.05;;;15.00;99.90;;;;;;939932;152;27345;-79
2022/11/09 07:02:47;;;;;;;2.20;1.70;;;15.00;99.90;;;;;;940937;150;27292;-79
2022/11/09 07:05:14;;;;;;;1.98;1.67;;;15.00;99.90;;;;;;940040;149;27397;-79
2022/11/09 07:07:41;;;;;;;1.95;1.80;;;15.00;99.90;;;;;;940431;150;27300;-79
2022/11/09 07:10:07;;;;;;;1.80;1.70;;;15.00;99.90;;;;;;940406;152;27359;-81
2022/11/09 07:12:34;;;;;;;2.00;1.87;;;15.10;99.90;;;;;;940606;149;27336;-80
2022/11/09 07:15:00;;;;;;;2.30;1.62;;;15.00;99.90;;;;;;939084;151;27339;-81
2022/11/09 07:17:27;;;;;;;1.82;1.72;;;15.00;99.90;;;;;;939722;150;27386;-81
2022/11/09 07:19:54;;;;;;;4.42;1.65;;;15.10;99.90;;;;;;939936;150;28042;-80
2022/11/09 07:22:20;;;;;;;2.22;2.05;;;15.10;99.90;;;;;;950503;150;27314;-79
2022/11/09 07:24:47;;;;;;;1.75;1.65;;;15.10;99.90;;;;;;952974;148;27352;-80
2022/11/09 07:27:13;;;;;;;1.85;1.75;;;15.10;99.90;;;;;;952703;150;27333;-81
2022/11/09 07:29:40;;;;;;;2.12;1.80;;;15.10;99.90;;;;;;953280;147;28177;-79
2022/11/09 07:32:06;;;;;;;1.80;1.70;;;15.10;99.90;;;;;;953181;148;27294;-80
2022/11/09 07:34:33;;;;;;;1.60;1.50;;;15.10;99.90;;;;;;953008;148;27306;-79
2022/11/09 07:37:00;;;;;;;1.87;1.60;;;15.10;99.90;;;;;;952230;150;27436;-80
2022/11/09 07:39:26;;;;;;;2.30;2.20;;;15.10;99.90;;;;;;951967;148;27335;-81
2022/11/09 07:41:54;;;;;;;2.15;1.95;;;15.10;99.90;;;;;;953007;150;27970;-80
2022/11/09 07:44:19;;;;;;;1.77;1.67;;;15.10;99.90;;;;;;952851;148;27307;-80
2022/11/09 07:46:46;;;;;;;2.30;1.70;;;15.20;99.90;;;;;;952644;147;27315;-81
2022/11/09 07:49:13;;;;;;;5.72;2.65;;;15.20;99.90;;;;;;951855;149;27318;-80
2022/11/09 07:51:39;;;;;;;1.95;1.50;;;15.20;99.90;;;;;;953552;148;27331;-79
2022/11/09 07:54:06;;;;;;;1.90;1.80;;;15.20;99.90;;;;;;952734;147;27337;-81
2022/11/09 07:56:32;;;;;;;1.87;1.77;;;15.20;99.90;;;;;;953068;147;27370;-81
2022/11/09 07:58:59;;;;;;;1.77;1.45;;;15.30;99.90;;;;;;953154;150;27452;-81
2022/11/09 08:01:26;;;;;;;2.52;1.72;;;15.30;99.90;;;;;;953380;148;28615;-81
2022/11/09 08:03:52;;;;;;;1.80;1.62;;;15.30;99.90;;;;;;952695;149;27298;-81
2022/11/09 08:06:19;;;;;;;1.80;1.70;;;15.30;99.90;;;;;;952932;148;27358;-81
2022/11/09 08:08:45;;;;;;;1.70;1.60;;;15.40;99.90;;;;;;952737;148;27283;-81
2022/11/09 08:11:12;;;;;;;2.08;1.70;;;15.50;99.90;;;;;;952570;150;27856;-80
2022/11/09 08:13:38;;;;;;;1.42;1.32;;;15.50;99.90;;;;;;952638;148;27294;-82
2022/11/09 08:16:05;;;;;;;1.50;1.40;;;15.60;99.90;;;;;;952515;148;28013;-80
2022/11/09 08:18:32;;;;;;;1.70;1.60;;;15.70;99.90;;;;;;952729;150;27420;-83
2022/11/09 08:20:58;;;;;;;1.72;1.40;;;15.80;99.90;;;;;;952124;147;27288;-79
2022/11/09 08:23:25;;;;;;;1.40;1.30;;;15.80;99.90;;;;;;940984;147;27429;-82
2022/11/09 08:25:51;;;;;;;1.40;1.30;;;15.90;99.90;;;;;;938988;150;27418;-82
2022/11/09 08:28:18;;;;;;;1.25;1.15;;;16.00;99.90;;;;;;940184;149;27426;-81
2022/11/09 08:30:45;;;;;;;2.15;1.37;;;16.00;99.90;;;;;;940670;150;27430;-81
2022/11/09 08:33:11;;;;;;;2.85;1.40;;;16.10;99.90;;;;;;940169;150;27333;-82
2022/11/09 08:35:38;;;;;;;1.30;1.30;;;16.10;99.90;;;;;;939515;149;27261;-81
2022/11/09 08:38:04;;;;;;;1.05;1.02;;;16.20;99.90;;;;;;939566;150;27380;-82
2022/11/09 08:40:31;;;;;;;2.15;1.42;;;16.20;99.90;;;;;;939478;152;27750;-81
2022/11/09 08:43:03;;;;;;;1.20;1.10;;;16.30;99.90;;;;;;939220;151;27450;-80
2022/11/09 08:45:30;;;;;;;1.45;1.30;;;16.30;99.90;;;;;;940229;151;27358;-82
2022/11/09 08:47:56;;;;;;;1.50;1.30;;;16.40;99.90;;;;;;940369;150;27234;-83
2022/11/09 08:50:23;;;;;;;1.20;1.10;;;16.40;99.90;;;;;;939992;149;27385;-80
2022/11/09 08:52:49;;;;;;;1.37;1.25;;;16.50;99.90;;;;;;940122;150;27455;-80
2022/11/09 08:55:16;;;;;;;1.40;1.30;;;16.50;99.90;;;;;;940387;150;27360;-80
2022/11/09 08:57:42;;;;;;;1.80;1.00;;;16.50;99.90;;;;;;939984;151;27273;-80
2022/11/09 09:00:09;;;;;;;1.00;1.00;;;16.50;99.90;;;;;;939166;151;27460;-80
2022/11/09 09:02:36;;;;;;;0.88;0.85;;;16.50;99.90;;;;;;940333;149;27402;-80
2022/11/09 09:05:02;;;;;;;0.68;0.60;;;16.50;99.90;;;;;;939598;151;27303;-80
2022/11/09 09:07:29;;;;;;;1.02;1.02;;;16.50;99.90;;;;;;940392;150;27363;-80
2022/11/09 09:09:56;;;;;;;0.93;0.93;;;16.50;99.90;;;;;;939798;150;27381;-80
2022/11/09 09:12:22;;;;;;;0.75;0.75;;;16.50;99.90;;;;;;939813;152;27381;-80
2022/11/09 09:14:49;;;;;;;1.65;1.10;;;16.50;99.90;;;;;;939754;149;27441;-80
2022/11/09 09:17:15;;;;;;;1.12;0.90;;;16.50;99.90;;;;;;939935;150;27273;-81
2022/11/09 09:19:42;;;;;;;0.70;0.70;;;16.50;99.90;;;;;;940760;151;27313;-79
2022/11/09 09:22:08;;;;;;;0.90;0.90;;;16.50;99.90;;;;;;940252;152;27429;-80
2022/11/09 09:24:35;;;;;;;1.22;0.90;;;16.50;99.90;;;;;;939454;150;28074;-80
2022/11/09 09:27:02;;;;;;;1.10;0.75;;;16.60;99.90;;;;;;939667;149;27305;-81
2022/11/09 09:29:28;;;;;;;1.42;0.72;;;16.60;99.90;;;;;;940948;150;27297;-80
2022/11/09 09:31:55;;;;;;;0.75;0.75;;;16.60;99.90;;;;;;939920;150;27740;-80
2022/11/09 09:34:21;;;;;;;0.90;0.90;;;16.60;99.90;;;;;;939889;149;27331;-79
2022/11/09 09:36:48;;;;;;;1.07;0.93;;;16.60;99.90;;;;;;940204;150;27331;-80
2022/11/09 09:39:15;;;;;;;0.80;0.80;;;16.60;99.90;;;;;;940004;152;27382;-80
2022/11/09 09:41:56;;;;;;;4.42;1.02;;;16.60;99.90;;;;;;940347;150;27324;-80
2022/11/09 09:44:25;;;;;;;1.05;0.95;;;16.70;99.90;;;;;;940096;151;27401;-80
2022/11/09 09:46:52;;;;;;;1.05;0.78;;;16.70;99.90;;;;;;940318;151;27389;-81
2022/11/09 09:49:18;;;;;;;0.72;0.70;;;16.70;99.90;;;;;;938983;150;28021;-81
2022/11/09 09:51:57;;;;;;;0.60;0.57;;;16.80;99.90;;;;;;937605;150;27453;-81
2022/11/09 09:54:24;;;;;;;1.67;0.80;;;16.80;99.90;;;;;;940380;151;28109;-80
2022/11/09 09:56:50;;;;;;;0.42;0.42;;;16.90;99.90;;;;;;938746;151;27319;-80
2022/11/09 09:59:38;;;;;;;0.62;0.62;;;17.00;99.90;;;;;;940423;151;27336;-80
2022/11/09 10:02:10;;;;;;;0.57;0.57;;;17.00;99.90;;;;;;940289;150;28282;-82
2022/11/09 10:04:37;;;;;;;0.50;0.50;;;17.10;99.90;;;;;;938278;152;27416;-81
2022/11/09 10:07:12;;;;;;;0.65;0.45;;;17.20;99.90;;;;;;939925;150;27309;-81
2022/11/09 10:09:51;;;;;;;0.50;0.50;;;17.30;99.90;;;;;;940291;150;27785;-80
2022/11/09 10:12:20;;;;;;;0.47;0.47;;;17.30;99.90;;;;;;939900;151;27308;-79
2022/11/09 10:14:59;;;;;;;0.70;0.60;;;17.40;99.90;;;;;;941996;145;27277;-80
2022/11/09 10:17:44;;;;;;;0.57;0.53;;;17.50;99.90;;;;;;942657;149;27317;-79
2022/11/09 10:20:31;;;;;;;2.30;0.53;;;17.60;99.90;;;;;;943174;145;27347;-78
2022/11/09 10:23:13;;;;;;;0.90;0.60;;;17.80;99.90;;;;;;940692;145;27363;-80
2022/11/09 10:25:39;;;;;;;0.53;0.53;;;17.80;99.90;;;;;;925333;147;27331;-81
2022/11/09 10:28:09;;;;;;;1.15;0.50;;;17.90;99.90;;;;;;952990;149;27306;-81
2022/11/09 10:30:35;;;;;;;0.80;0.40;;;18.00;99.90;;;;;;952214;149;27827;-80
2022/11/09 10:33:12;;;;;;;0.65;0.57;;;18.00;99.90;;;;;;953035;148;27267;-79
2022/11/09 10:35:37;;;;;;;0.47;0.47;;;18.00;99.90;;;;;;952651;147;27346;-81
2022/11/09 10:38:04;;;;;;;0.98;0.50;;;18.00;99.90;;;;;;953585;149;27368;-81
2022/11/09 10:40:36;;;;;;;0.50;0.50;;;18.00;99.90;;;;;;953060;150;27271;-81
2022/11/09 10:43:06;;;;;;;1.05;0.57;;;18.00;99.90;;;;;;953434;149;27319;-81
2022/11/09 10:45:32;;;;;;;0.30;0.30;;;17.90;99.90;;;;;;952247;148;27422;-81
2022/11/09 10:47:59;;;;;;;0.53;0.53;;;17.90;99.90;;;;;;954125;147;27322;-80
2022/11/09 10:50:47;;;;;;;0.68;0.50;;;17.90;99.90;;;;;;952820;150;27364;-80
2022/11/09 10:53:16;;;;;;;1.12;0.80;;;17.90;99.90;;;;;;952981;150;27267;-81
2022/11/09 10:55:52;;;;;;;0.25;0.25;;;17.90;99.90;;;;;;951722;150;27364;-81
2022/11/09 10:58:31;;;;;;;0.88;0.60;;;18.00;99.90;;;;;;952959;148;27323;-81
2022/11/09 11:01:05;;;;;;;0.40;0.40;;;18.00;99.90;;;;;;953203;150;27375;-81
2022/11/09 11:03:34;;;;;;;0.68;0.40;;;18.10;99.90;;;;;;952959;147;27349;-81
2022/11/09 11:06:04;;;;;;;0.80;0.53;;;18.10;99.90;;;;;;953181;147;27410;-80
2022/11/09 11:08:36;;;;;;;1.85;0.62;;;18.10;99.90;;;;;;953299;147;27924;-81
2022/11/09 11:11:18;;;;;;;1.65;0.50;;;18.30;99.90;;;;;;953308;150;27330;-81
2022/11/09 11:13:44;;;;;;;0.53;0.53;;;18.30;99.90;;;;;;951149;147;27283;-81
2022/11/09 11:16:14;;;;;;;0.65;0.50;;;18.40;99.90;;;;;;953102;148;27372;-80
2022/11/09 11:18:40;;;;;;;0.50;0.50;;;18.50;99.90;;;;;;945362;150;27767;-81
2022/11/09 11:21:13;;;;;;;0.88;0.45;;;18.50;99.90;;;;;;951861;150;27350;-81
2022/11/09 11:23:39;;;;;;;0.50;0.50;;;18.60;99.90;;;;;;952411;147;27287;-81
2022/11/09 11:26:12;;;;;;;0.75;0.50;;;18.70;99.90;;;;;;949910;148;27425;-81
2022/11/09 11:28:44;;;;;;;0.70;0.70;;;18.80;99.90;;;;;;939744;149;27324;-79
2022/11/09 11:31:13;;;;;;;1.95;0.78;;;18.80;99.90;;;;;;940325;151;27432;-81
2022/11/09 11:33:40;;;;;;;1.22;0.75;;;18.90;99.90;;;;;;939322;151;27389;-81
2022/11/09 11:36:15;;;;;;;0.75;0.75;;;19.00;99.90;;;;;;940075;151;27806;-81
2022/11/09 11:38:50;;;;;;;0.90;0.60;;;19.10;99.80;;;;;;940673;151;27429;-81
2022/11/09 11:41:41;;;;;;;0.88;0.82;;;19.10;99.20;;;;;;939711;152;27420;-81
2022/11/09 11:44:29;;;;;;;0.98;0.70;;;19.10;98.80;;;;;;940513;151;27276;-80
2022/11/09 11:46:56;;;;;;;1.50;0.82;;;19.10;98.40;;;;;;940085;152;27293;-80
2022/11/09 11:49:37;;;;;;;0.60;0.60;;;19.20;97.70;;;;;;939888;151;27393;-79
2022/11/09 11:52:09;;;;;;;1.32;0.88;;;19.20;97.80;;;;;;940786;151;28014;-78
2022/11/09 11:54:41;;;;;;;0.70;0.60;;;19.20;97.50;;;;;;940439;152;27424;-80
2022/11/09 11:57:22;;;;;;;0.80;0.72;;;19.20;96.70;;;;;;938058;150;27337;-80
2022/11/09 11:59:52;;;;;;;1.30;0.60;;;19.20;96.20;;;;;;935866;152;27284;-79
2022/11/09 12:02:27;;;;;;;0.90;0.78;;;19.30;96.10;;;;;;940240;150;27450;-80
2022/11/09 12:05:03;;;;;;;0.93;0.78;;;19.20;95.60;;;;;;939783;152;27360;-80
2022/11/09 12:07:44;;;;;;;2.40;1.30;;;19.20;95.30;;;;;;938861;151;27453;-79
2022/11/09 12:10:14;;;;;;;0.65;0.65;;;19.20;95.40;;;;;;939620;151;27264;-79
2022/11/09 12:12:58;;;;;;;2.12;0.80;;;19.20;95.10;;;;;;939609;151;27388;-81
2022/11/09 12:15:33;;;;;;;0.82;0.80;;;19.10;95.00;;;;;;939800;151;27401;-80
2022/11/09 12:18:05;;;;;;;0.68;0.68;;;19.10;95.70;;;;;;939982;151;27698;-80
2022/11/09 12:20:47;;;;;;;1.90;0.80;;;19.10;95.40;;;;;;939801;152;27351;-80
2022/11/09 12:23:17;;;;;;;1.85;0.93;;;19.10;95.00;;;;;;939208;152;27327;-81
2022/11/09 12:25:52;;;;;;;1.32;0.78;;;19.10;94.90;;;;;;938862;151;27380;-81
2022/11/09 12:28:40;;;;;;;1.57;0.72;;;19.10;94.70;;;;;;939290;150;27324;-79
2022/11/09 12:31:23;;;;;;;1.82;1.00;;;19.00;94.80;;;;;;930637;151;27712;-80
2022/11/09 12:33:54;;;;;;;2.45;1.00;;;19.10;95.00;;;;;;940190;149;27351;-81
2022/11/09 12:36:26;;;;;;;1.82;0.90;;;19.00;95.10;;;;;;939885;151;27403;-78
2022/11/09 12:38:59;;;;;;;1.57;0.90;;;19.00;94.90;;;;;;940362;151;27276;-80
2022/11/09 12:41:25;;;;;;;1.40;0.78;;;19.10;95.00;;;;;;940297;152;27321;-80
2022/11/09 12:43:58;;;;;;;0.95;0.72;;;19.10;94.90;;;;;;939855;150;27392;-80
2022/11/09 12:46:24;;;;;;;0.65;0.65;;;19.00;94.80;;;;;;940198;151;27347;-80
2022/11/09 12:48:51;;;;;;;0.93;0.60;;;19.10;94.70;;;;;;940024;151;28337;-80
2022/11/09 12:51:17;;;;;;;1.75;0.72;;;19.10;94.70;;;;;;940375;151;27377;-80
2022/11/09 12:53:44;;;;;;;2.75;0.80;;;19.10;94.80;;;;;;941048;151;27869;-80
2022/11/09 12:56:22;;;;;;;2.10;1.00;;;19.20;94.80;;;;;;940647;149;27314;-79
2022/11/09 12:58:49;;;;;;;0.80;0.80;;;19.20;94.50;;;;;;939651;151;27413;-81